Time;durP1;ratioP1;P1;durP2;ratioP2;P2;SDS_P1;SDS_P2;PMS_P1;PMS_P2;Temp;Humidity;BMP_temperature;BMP_pressure;BME280_temperature;BME280_humidity;BME280_pressure;Samples;Min_cycle;Max_cycle;Signal;HPM_P1;HPM_P2
2021/04/21 00:00:50;;;;;;;18.10;16.17;;;;;;;10.08;68.73;95487.38;5012316;28;20234;-82
2021/04/21 00:03:16;;;;;;;18.10;16.30;;;;;;;10.07;68.34;95484.00;5013366;28;20195;-85
2021/04/21 00:05:43;;;;;;;17.47;15.47;;;;;;;9.95;68.96;95480.28;5031700;28;20217;-82
2021/04/21 00:08:09;;;;;;;16.90;15.10;;;;;;;9.92;68.99;95478.84;5020099;28;20209;-82
2021/04/21 00:10:38;;;;;;;17.40;15.60;;;;;;;9.89;69.07;95481.75;5011483;28;20769;-83
2021/04/21 00:13:07;;;;;;;16.93;15.13;;;;;;;9.88;69.11;95482.72;5012146;28;20227;-82
2021/04/21 00:15:33;;;;;;;16.73;14.93;;;;;;;9.84;69.07;95478.09;5011441;28;20241;-83
2021/04/21 00:18:02;;;;;;;18.50;15.30;;;;;;;9.82;69.48;95470.56;5011945;28;20249;-83
2021/04/21 00:20:29;;;;;;;16.50;14.80;;;;;;;9.90;68.86;95467.94;5011493;28;20199;-82
2021/04/21 00:22:59;;;;;;;16.00;14.40;;;;;;;9.90;69.04;95470.50;5012410;28;20199;-83
2021/04/21 00:25:26;;;;;;;16.00;14.30;;;;;;;9.95;69.03;95475.94;5012182;28;20234;-83
2021/04/21 00:27:54;;;;;;;15.43;13.83;;;;;;;9.98;68.34;95469.63;5012086;28;20209;-83
2021/04/21 00:30:23;;;;;;;14.57;13.07;;;;;;;9.98;68.32;95467.88;5011873;28;20257;-83
2021/04/21 00:32:51;;;;;;;15.60;13.93;;;;;;;9.94;68.30;95469.19;5011985;28;20288;-82
2021/04/21 00:35:21;;;;;;;15.20;13.70;;;;;;;9.84;68.34;95465.25;5011689;28;20203;-82
2021/04/21 00:37:51;;;;;;;16.50;13.50;;;;;;;9.77;68.69;95459.22;5012111;28;20202;-83
2021/04/21 00:40:23;;;;;;;14.00;12.50;;;;;;;9.78;68.52;95464.19;5012758;28;20210;-84
2021/04/21 00:42:54;;;;;;;14.43;12.93;;;;;;;9.69;68.50;95452.38;5012052;28;20202;-82
2021/04/21 00:45:31;;;;;;;15.97;13.53;;;;;;;9.60;68.67;95448.28;5012381;28;20226;-83
2021/04/21 00:48:03;;;;;;;14.97;13.37;;;;;;;9.63;68.56;95451.28;5010834;28;20209;-81
2021/04/21 00:50:39;;;;;;;14.77;13.23;;;;;;;9.66;68.97;95447.56;5012237;28;20203;-82
2021/04/21 00:53:09;;;;;;;14.23;12.73;;;;;;;9.68;68.35;95454.13;4992277;28;20658;-83
2021/04/21 00:55:39;;;;;;;14.43;13.00;;;;;;;9.67;68.26;95442.25;4994132;28;20223;-83
2021/04/21 00:58:12;;;;;;;13.63;12.23;;;;;;;9.66;67.90;95443.22;5011380;28;20207;-82
2021/04/21 01:00:44;;;;;;;12.53;11.33;;;;;;;9.63;68.20;95446.16;5011582;28;20198;-84
2021/04/21 01:03:12;;;;;;;11.87;10.57;;;;;;;9.60;68.23;95443.16;5011627;28;20206;-82
2021/04/21 01:05:41;;;;;;;13.37;11.80;;;;;;;9.53;68.21;95440.47;5018577;28;20233;-83
2021/04/21 01:08:11;;;;;;;12.07;10.87;;;;;;;9.50;68.30;95437.44;5012152;28;20231;-83
2021/04/21 01:10:42;;;;;;;12.77;10.90;;;;;;;9.51;68.34;95441.59;5010797;28;20230;-81
2021/04/21 01:13:11;;;;;;;12.50;11.20;;;;;;;9.45;68.34;95437.94;5011404;28;20222;-81
2021/04/21 01:15:41;;;;;;;12.87;11.07;;;;;;;9.43;68.58;95436.53;5011245;28;20214;-83
2021/04/21 01:18:09;;;;;;;11.90;10.67;;;;;;;9.43;68.32;95436.53;5011687;28;20200;-83
2021/04/21 01:20:43;;;;;;;12.40;11.20;;;;;;;9.42;68.65;95440.09;5011745;28;20209;-82
2021/04/21 01:23:41;;;;;;;11.90;10.80;;;;;;;9.28;68.88;95439.03;5011735;28;20209;-84
2021/04/21 01:26:17;;;;;;;12.47;11.17;;;;;;;9.37;68.21;95439.78;4991866;28;20263;-82
2021/04/21 01:28:50;;;;;;;13.73;10.80;;;;;;;9.42;67.79;95437.50;4994370;28;20283;-82
2021/04/21 01:31:17;;;;;;;10.10;9.20;;;;;;;9.27;68.50;95438.25;5010428;28;20230;-82
2021/04/21 01:33:46;;;;;;;9.97;8.97;;;;;;;9.34;67.89;95438.38;5010449;28;20218;-81
2021/04/21 01:36:15;;;;;;;10.10;9.10;;;;;;;9.26;67.99;95435.84;5010004;28;20210;-83
2021/04/21 01:38:43;;;;;;;9.90;8.87;;;;;;;9.28;67.97;95439.03;5010260;28;20198;-82
2021/04/21 01:41:14;;;;;;;10.07;9.03;;;;;;;9.28;67.75;95434.72;5009952;28;20203;-82
2021/04/21 01:43:45;;;;;;;10.30;9.30;;;;;;;9.30;67.64;95442.25;5010387;28;20210;-83
2021/04/21 01:46:14;;;;;;;10.97;9.30;;;;;;;9.20;67.42;95441.69;5010278;28;20218;-83
2021/04/21 01:48:41;;;;;;;9.70;8.80;;;;;;;9.23;67.79;95438.78;5011668;28;20290;-82
2021/04/21 01:51:14;;;;;;;9.70;8.80;;;;;;;9.24;67.47;95443.72;5014286;28;20218;-81
2021/04/21 01:53:45;;;;;;;9.10;8.27;;;;;;;9.25;67.64;95440.19;4995548;28;20219;-82
2021/04/21 01:56:15;;;;;;;8.70;7.77;;;;;;;9.29;67.79;95440.66;5010309;28;20238;-83
2021/04/21 01:58:53;;;;;;;8.77;7.87;;;;;;;9.28;67.08;95442.41;5014219;28;20203;-82
2021/04/21 02:01:45;;;;;;;8.73;7.77;;;;;;;9.29;67.35;95444.00;5014090;28;20213;-82
2021/04/21 02:04:25;;;;;;;8.87;7.97;;;;;;;9.27;66.85;95445.16;5020519;28;20202;-83
2021/04/21 02:07:01;;;;;;;8.60;7.70;;;;;;;9.26;66.83;95443.56;5019413;28;20219;-83
2021/04/21 02:09:59;;;;;;;9.37;8.13;;;;;;;9.17;67.22;95450.53;5013321;28;20206;-83
2021/04/21 02:13:04;;;;;;;9.23;8.33;;;;;;;9.10;66.83;95438.53;5014096;28;20219;-83
2021/04/21 02:15:43;;;;;;;8.43;7.63;;;;;;;9.07;67.25;95438.88;5014110;28;20226;-82
2021/04/21 02:18:22;;;;;;;8.07;7.27;;;;;;;9.03;67.14;95438.44;5013632;28;20663;-83
2021/04/21 02:20:57;;;;;;;7.60;6.90;;;;;;;9.06;67.21;95442.41;5013199;28;20783;-82
2021/04/21 02:23:31;;;;;;;7.63;6.93;;;;;;;9.05;67.27;95433.91;5013982;28;20199;-83
2021/04/21 02:26:15;;;;;;;7.90;7.10;;;;;;;9.03;67.06;95437.63;4994698;28;560135;-83
2021/04/21 02:28:49;;;;;;;6.97;6.33;;;;;;;8.94;67.30;95435.09;5015213;28;20202;-84
2021/04/21 02:31:23;;;;;;;7.33;6.63;;;;;;;8.78;67.93;95436.97;5014485;28;20205;-81
2021/04/21 02:34:00;;;;;;;7.53;6.83;;;;;;;8.78;68.09;95444.66;5014797;28;20693;-81
2021/04/21 02:36:31;;;;;;;7.50;6.80;;;;;;;8.76;68.13;95437.13;5015458;28;20222;-84
2021/04/21 02:39:04;;;;;;;7.23;6.50;;;;;;;8.84;67.81;95439.66;5014614;28;20195;-82
2021/04/21 02:41:43;;;;;;;7.67;6.80;;;;;;;8.86;67.42;95434.34;5014516;28;20183;-83
2021/04/21 02:44:16;;;;;;;7.47;6.77;;;;;;;8.83;67.17;95429.56;5014667;28;20294;-81
2021/04/21 02:46:46;;;;;;;6.83;6.23;;;;;;;8.80;67.56;95430.69;5014667;28;20226;-82
2021/04/21 02:49:22;;;;;;;7.10;6.40;;;;;;;8.80;67.40;95423.00;5014406;28;20202;-81
2021/04/21 02:52:01;;;;;;;7.50;6.80;;;;;;;8.76;67.49;95426.06;5014697;28;20264;-81
2021/04/21 02:54:41;;;;;;;7.43;6.67;;;;;;;8.75;67.67;95427.03;5014739;28;20203;-81
2021/04/21 02:57:14;;;;;;;6.90;6.20;;;;;;;8.77;67.46;95422.53;5014842;28;20214;-81
2021/04/21 02:59:45;;;;;;;7.20;6.60;;;;;;;8.78;67.55;95427.50;5014655;28;20298;-82
2021/04/21 03:02:17;;;;;;;6.77;6.10;;;;;;;8.77;67.18;95422.53;5013770;28;20209;-81
2021/04/21 03:04:49;;;;;;;7.00;6.40;;;;;;;8.72;67.32;95432.50;5025218;28;20634;-83
2021/04/21 03:07:20;;;;;;;7.17;6.47;;;;;;;8.73;67.57;95426.41;5016058;28;20214;-82
2021/04/21 03:09:50;;;;;;;6.47;5.90;;;;;;;8.71;67.30;95426.56;5013223;28;20289;-83
2021/04/21 03:12:25;;;;;;;7.43;6.73;;;;;;;8.66;67.32;95429.63;5014038;28;20218;-81
2021/04/21 03:14:57;;;;;;;7.40;6.70;;;;;;;8.59;67.37;95418.44;5013319;28;20194;-80
2021/04/21 03:17:23;;;;;;;6.90;6.30;;;;;;;8.56;67.51;95425.69;5013871;28;20227;-82
2021/04/21 03:19:55;;;;;;;6.60;6.00;;;;;;;8.65;67.74;95430.63;5013810;28;20199;-83
2021/04/21 03:22:23;;;;;;;7.10;6.40;;;;;;;8.60;67.72;95430.31;5013178;28;20203;-81
2021/04/21 03:24:57;;;;;;;6.70;6.10;;;;;;;8.50;68.24;95416.88;5012988;28;20614;-81
2021/04/21 03:27:28;;;;;;;7.03;6.33;;;;;;;8.38;68.50;95427.69;5012787;28;20280;-83
2021/04/21 03:29:56;;;;;;;7.33;6.50;;;;;;;8.37;68.45;95424.31;5012452;28;20237;-82
2021/04/21 03:32:25;;;;;;;7.07;6.37;;;;;;;8.41;68.67;95423.03;5012405;28;20210;-81
2021/04/21 03:34:55;;;;;;;6.40;5.73;;;;;;;8.45;68.17;95426.06;5013595;28;20199;-81
2021/04/21 03:37:30;;;;;;;7.20;6.50;;;;;;;8.47;67.95;95418.97;5013266;28;20625;-83
2021/04/21 03:39:57;;;;;;;7.10;6.33;;;;;;;8.50;67.81;95422.00;5013430;28;20860;-83
2021/04/21 03:42:23;;;;;;;8.80;6.10;;;;;;;8.52;67.75;95422.66;5013340;28;20199;-82
2021/04/21 03:44:49;;;;;;;6.73;6.13;;;;;;;8.50;67.63;95427.13;5012260;28;20265;-82
2021/04/21 03:47:15;;;;;;;6.67;6.07;;;;;;;8.51;67.52;95421.03;5012193;28;20215;-82
2021/04/21 03:49:43;;;;;;;7.90;6.47;;;;;;;8.50;67.14;95421.22;5012109;28;20211;-83
2021/04/21 03:52:12;;;;;;;7.93;6.43;;;;;;;8.49;66.90;95414.47;5012760;28;20218;-82
2021/04/21 03:54:40;;;;;;;6.63;6.03;;;;;;;8.46;67.37;95418.22;5012837;28;20219;-85
2021/04/21 03:57:09;;;;;;;6.47;5.80;;;;;;;8.46;66.98;95412.28;5012930;28;20211;-81
2021/04/21 03:59:37;;;;;;;6.40;5.80;;;;;;;8.42;66.99;95408.44;5013078;28;20618;-83
2021/04/21 04:02:07;;;;;;;6.83;6.23;;;;;;;8.27;67.87;95416.00;5013041;28;20655;-83
2021/04/21 04:04:38;;;;;;;7.53;6.73;;;;;;;8.27;67.75;95419.34;5012875;28;20202;-82
2021/04/21 04:07:08;;;;;;;7.43;6.20;;;;;;;8.28;67.47;95420.94;5012904;28;20210;-83
2021/04/21 04:09:37;;;;;;;8.10;6.43;;;;;;;8.27;67.44;95424.47;5014702;28;20261;-82
2021/04/21 04:12:05;;;;;;;7.47;6.70;;;;;;;8.29;67.56;95416.63;5012541;28;20218;-82
2021/04/21 04:14:33;;;;;;;6.87;6.17;;;;;;;8.30;67.84;95416.44;5009420;28;20203;-82
2021/04/21 04:17:00;;;;;;;6.87;5.97;;;;;;;8.30;66.91;95413.88;5014599;28;20215;-82
2021/04/21 04:19:27;;;;;;;7.60;5.73;;;;;;;8.29;66.94;95422.53;5011396;28;20199;-82
2021/04/21 04:21:56;;;;;;;7.57;6.80;;;;;;;8.30;67.11;95424.16;5010853;28;20575;-81
2021/04/21 04:24:25;;;;;;;6.40;5.80;;;;;;;8.29;67.13;95419.97;5011030;28;20702;-82
2021/04/21 04:26:54;;;;;;;7.83;5.97;;;;;;;8.23;67.31;95425.00;5001468;28;20234;-81
2021/04/21 04:29:21;;;;;;;7.00;6.30;;;;;;;8.27;67.27;95424.47;5011304;28;20199;-82
2021/04/21 04:31:52;;;;;;;6.57;5.90;;;;;;;8.27;67.57;95423.69;5012470;28;20686;-82
2021/04/21 04:34:22;;;;;;;6.63;5.93;;;;;;;8.23;67.52;95425.78;5012031;28;20205;-81
2021/04/21 04:36:49;;;;;;;9.00;6.50;;;;;;;8.29;66.97;95425.09;5010310;28;20218;-82
2021/04/21 04:39:15;;;;;;;8.43;6.53;;;;;;;8.35;67.15;95425.44;5010901;28;20195;-81
2021/04/21 04:41:41;;;;;;;7.57;6.50;;;;;;;8.40;67.11;95428.31;5004118;28;21647;-82
2021/04/21 04:44:10;;;;;;;7.40;6.27;;;;;;;8.35;66.81;95433.94;5007094;28;20207;-82
2021/04/21 04:46:41;;;;;;;8.87;6.10;;;;;;;8.37;67.04;95432.03;5009123;28;20222;-84
2021/04/21 04:49:09;;;;;;;7.33;6.63;;;;;;;8.27;67.13;95428.84;5009408;28;20199;-80
2021/04/21 04:51:38;;;;;;;6.60;6.00;;;;;;;8.24;67.19;95439.41;5008864;28;20199;-79
2021/04/21 04:54:05;;;;;;;6.80;6.10;;;;;;;8.26;67.30;95438.28;5008304;28;20195;-82
2021/04/21 04:56:32;;;;;;;6.90;6.20;;;;;;;8.33;67.28;95430.75;5007474;28;20306;-81
2021/04/21 04:59:01;;;;;;;10.43;6.70;;;;;;;8.40;67.25;95436.03;5005794;28;20590;-81
2021/04/21 05:01:42;;;;;;;7.37;6.67;;;;;;;8.44;67.32;95447.56;5007932;28;20195;-80
2021/04/21 05:04:13;;;;;;;7.07;6.37;;;;;;;8.52;67.12;95450.06;5012165;28;20198;-82
2021/04/21 05:06:46;;;;;;;10.90;6.37;;;;;;;8.58;66.71;95450.22;5006582;28;20229;-81
2021/04/21 05:09:16;;;;;;;8.83;7.20;;;;;;;8.63;66.67;95455.66;5008414;28;20191;-81
2021/04/21 05:11:45;;;;;;;7.40;6.70;;;;;;;8.68;66.80;95465.41;5008539;28;20231;-80
2021/04/21 05:14:16;;;;;;;7.43;6.73;;;;;;;8.73;66.48;95464.91;5008670;28;20199;-80
2021/04/21 05:17:36;;;;;;;11.13;6.40;;;;;;;8.79;66.76;95456.53;5008117;28;20218;-81
2021/04/21 05:20:26;;;;;;;8.27;6.87;;;;;;;8.85;66.21;95463.56;4942046;29;20213;-80
2021/04/21 05:23:30;;;;;;;6.60;6.00;;;;;;;8.90;66.33;95471.53;5008309;28;20203;-80
2021/04/21 05:26:29;;;;;;;7.90;6.40;;;;;;;8.93;66.56;95469.44;5011364;28;20283;-81
2021/04/21 05:29:32;;;;;;;9.40;6.60;;;;;;;8.96;66.58;95465.75;5013288;28;20225;-81
2021/04/21 05:32:35;;;;;;;7.27;6.47;;;;;;;9.01;65.92;95473.75;5008149;28;20248;-82
2021/04/21 05:35:38;;;;;;;7.40;6.63;;;;;;;9.05;65.86;95476.75;5006461;28;20194;-79
2021/04/21 05:38:40;;;;;;;6.60;6.00;;;;;;;9.10;65.67;95480.41;5011240;28;20202;-80
2021/04/21 05:42:13;;;;;;;7.23;6.53;;;;;;;9.10;65.27;95487.31;5007604;28;20697;-83
2021/04/21 05:45:21;;;;;;;7.23;6.53;;;;;;;9.14;65.77;95488.59;4973804;28;20666;-81
2021/04/21 05:48:18;;;;;;;7.10;6.40;;;;;;;9.20;65.85;95491.28;5009559;28;20207;-82
2021/04/21 05:51:20;;;;;;;8.17;6.77;;;;;;;9.09;66.35;95483.97;5011822;28;20214;-81
2021/04/21 05:54:27;;;;;;;8.90;7.53;;;;;;;9.03;66.58;95478.72;5012503;28;20835;-83
2021/04/21 05:57:12;;;;;;;7.57;6.73;;;;;;;9.17;66.37;95486.50;5012951;28;20304;-79
2021/04/21 06:00:10;;;;;;;8.00;7.13;;;;;;;9.34;65.50;95493.13;5010839;28;20424;-81
2021/04/21 06:02:37;;;;;;;6.93;6.20;;;;;;;9.45;65.41;95491.91;5013405;28;20211;-83
2021/04/21 06:05:06;;;;;;;7.47;6.67;;;;;;;9.39;65.08;95490.03;5013246;28;21042;-81
2021/04/21 06:07:32;;;;;;;8.00;7.03;;;;;;;9.47;65.14;95489.16;5012635;28;20209;-79
2021/04/21 06:09:58;;;;;;;7.23;6.47;;;;;;;9.49;65.05;95488.03;5005551;28;20222;-82
2021/04/21 06:12:25;;;;;;;7.27;6.57;;;;;;;9.58;65.02;95483.63;5012101;28;20230;-80
2021/04/21 06:14:55;;;;;;;7.03;6.40;;;;;;;9.65;65.00;95487.09;5012758;28;20292;-81
2021/04/21 06:17:25;;;;;;;8.33;6.23;;;;;;;9.76;64.04;95488.47;5015161;28;20619;-81
2021/04/21 06:19:51;;;;;;;5.80;5.30;;;;;;;9.91;64.90;95495.25;5013709;28;20229;-81
2021/04/21 06:22:27;;;;;;;7.47;6.30;;;;;;;10.14;64.65;95491.81;5016560;28;20206;-82
2021/04/21 06:25:08;;;;;;;6.70;5.87;;;;;;;10.39;65.10;95486.28;5015075;28;20210;-83
2021/04/21 06:27:35;;;;;;;9.07;6.10;;;;;;;10.54;62.94;95488.88;5015013;28;20203;-81
2021/04/21 06:30:14;;;;;;;5.90;5.17;;;;;;;10.82;65.09;95488.19;5014001;28;20689;-83
2021/04/21 06:32:40;;;;;;;7.70;6.03;;;;;;;10.98;62.11;95493.13;5012432;28;20730;-81
2021/04/21 06:35:08;;;;;;;7.60;6.80;;;;;;;11.00;61.88;95489.41;5009759;28;20590;-80
2021/04/21 06:37:36;;;;;;;8.03;6.53;;;;;;;11.00;61.24;95486.81;5014988;28;20198;-81
2021/04/21 06:40:04;;;;;;;7.93;7.07;;;;;;;10.91;61.38;95500.81;5013249;28;20214;-80
2021/04/21 06:42:30;;;;;;;7.00;6.07;;;;;;;10.91;61.76;95505.16;5013616;28;20234;-81
2021/04/21 06:44:58;;;;;;;7.30;6.60;;;;;;;10.95;61.94;95501.25;5013765;28;20202;-82
2021/04/21 06:47:26;;;;;;;7.23;6.43;;;;;;;11.01;61.79;95497.94;5012734;28;20218;-80
2021/04/21 06:49:59;;;;;;;6.60;6.00;;;;;;;11.05;60.83;95496.59;5012470;28;20238;-81
2021/04/21 06:52:34;;;;;;;9.10;6.27;;;;;;;11.15;60.42;95496.31;5012647;28;20222;-82
2021/04/21 06:55:05;;;;;;;6.80;6.10;;;;;;;11.22;59.84;95499.75;5006357;28;20186;-82
2021/04/21 06:57:31;;;;;;;6.53;5.93;;;;;;;11.21;59.60;95498.94;5012691;28;20286;-80
2021/04/21 07:00:10;;;;;;;6.63;6.03;;;;;;;11.27;59.28;95498.22;5005010;28;20214;-83
2021/04/21 07:02:37;;;;;;;7.23;6.37;;;;;;;11.28;58.75;95496.44;5011735;28;20207;-82
2021/04/21 07:05:05;;;;;;;8.00;5.53;;;;;;;11.48;61.96;95501.81;5014593;28;20213;-81
2021/04/21 07:07:32;;;;;;;7.50;6.03;;;;;;;11.66;59.33;95502.19;5016557;28;20225;-79
2021/04/21 07:09:58;;;;;;;6.67;6.00;;;;;;;11.69;58.86;95507.75;5008013;28;20237;-82
2021/04/21 07:12:24;;;;;;;6.47;5.83;;;;;;;11.74;58.28;95499.44;5011959;28;20323;-81
2021/04/21 07:14:50;;;;;;;10.63;6.10;;;;;;;11.77;57.51;95510.22;5011377;28;20230;-80
2021/04/21 07:17:18;;;;;;;5.87;5.37;;;;;;;11.85;57.53;95505.94;5011978;28;20229;-81
2021/04/21 07:19:46;;;;;;;7.50;5.63;;;;;;;11.94;57.15;95508.19;5010541;28;20198;-82
2021/04/21 07:22:14;;;;;;;6.00;5.50;;;;;;;11.90;56.32;95506.97;5010950;28;20202;-82
2021/04/21 07:24:43;;;;;;;6.43;5.40;;;;;;;12.06;57.67;95511.06;5011588;28;20202;-80
2021/04/21 07:27:12;;;;;;;6.10;5.50;;;;;;;12.14;56.38;95515.28;5012509;28;20238;-81
2021/04/21 07:29:38;;;;;;;6.77;5.83;;;;;;;12.29;57.05;95513.41;5010256;28;20253;-83
2021/04/21 07:32:21;;;;;;;7.90;5.67;;;;;;;12.46;55.87;95509.56;5011201;28;20208;-83
2021/04/21 07:34:57;;;;;;;6.27;5.67;;;;;;;12.54;54.89;95518.91;5009977;28;20210;-83
2021/04/21 07:37:34;;;;;;;6.03;5.20;;;;;;;12.77;54.63;95515.06;5005756;28;20272;-81
2021/04/21 07:40:01;;;;;;;7.83;5.20;;;;;;;12.90;54.14;95516.91;5005045;28;20190;-83
2021/04/21 07:42:27;;;;;;;5.30;4.80;;;;;;;13.02;54.39;95507.66;5011449;28;20412;-80
2021/04/21 07:44:55;;;;;;;5.70;5.20;;;;;;;13.17;54.13;95507.53;5011361;28;20233;-80
2021/04/21 07:47:23;;;;;;;5.30;4.80;;;;;;;13.17;52.44;95506.72;5010947;28;20222;-83
2021/04/21 07:49:55;;;;;;;7.73;5.20;;;;;;;13.26;52.13;95510.75;5011086;28;20202;-80
2021/04/21 07:52:23;;;;;;;6.00;5.50;;;;;;;13.34;52.00;95510.53;5012108;28;20227;-84
2021/04/21 07:54:49;;;;;;;6.40;5.40;;;;;;;13.49;52.47;95506.00;5011599;28;20221;-82
2021/04/21 07:57:19;;;;;;;6.30;4.97;;;;;;;13.63;52.10;95506.84;5012919;28;20227;-83
2021/04/21 07:59:48;;;;;;;6.07;5.57;;;;;;;13.82;51.95;95500.88;5011925;28;20195;-83
2021/04/21 08:02:17;;;;;;;5.83;5.23;;;;;;;14.04;51.44;95504.09;5011979;28;20191;-82
2021/04/21 08:04:55;;;;;;;5.83;5.33;;;;;;;14.15;49.99;95499.09;5019681;28;20201;-83
2021/04/21 08:07:29;;;;;;;5.60;5.03;;;;;;;14.38;49.76;95503.84;5012975;28;20305;-80
2021/04/21 08:09:56;;;;;;;4.97;4.57;;;;;;;14.57;48.60;95501.44;5011762;28;20870;-84
2021/04/21 08:12:25;;;;;;;5.70;5.20;;;;;;;14.69;47.76;95512.78;5012537;28;20222;-82
2021/04/21 08:14:53;;;;;;;6.77;4.90;;;;;;;14.61;47.59;95507.81;5014728;28;20207;-83
2021/04/21 08:17:20;;;;;;;5.20;4.70;;;;;;;14.69;46.59;95507.59;5013941;28;20710;-83
2021/04/21 08:19:53;;;;;;;7.83;4.97;;;;;;;14.90;46.53;95503.94;5010076;28;20296;-82
2021/04/21 08:22:24;;;;;;;7.63;4.30;;;;;;;15.17;48.20;95500.25;5011062;28;20214;-83
2021/04/21 08:24:51;;;;;;;5.93;5.30;;;;;;;15.28;48.09;95507.38;5008736;28;20198;-82
2021/04/21 08:27:18;;;;;;;4.93;4.50;;;;;;;15.51;47.90;95505.03;5007069;28;20234;-83
2021/04/21 08:29:46;;;;;;;6.63;5.30;;;;;;;15.82;45.72;95503.47;5005686;28;20195;-84
2021/04/21 08:32:16;;;;;;;5.33;4.70;;;;;;;16.06;48.01;95489.69;5005944;28;20199;-84
2021/04/21 08:34:46;;;;;;;6.10;5.50;;;;;;;16.30;46.42;95506.28;5004320;28;20191;-85
2021/04/21 08:37:12;;;;;;;6.13;5.53;;;;;;;16.50;46.68;95506.09;5001739;28;20587;-84
2021/04/21 08:39:41;;;;;;;7.57;6.87;;;;;;;16.65;43.36;95503.97;5005870;28;20209;-84
2021/04/21 08:42:23;;;;;;;6.23;5.63;;;;;;;16.72;44.02;95499.50;5006670;28;20837;-85
2021/04/21 08:44:58;;;;;;;8.20;7.37;;;;;;;16.65;42.88;95503.97;5006376;28;20237;-86
2021/04/21 08:47:42;;;;;;;7.73;6.27;;;;;;;17.01;44.04;95503.19;5007143;28;20218;-86
2021/04/21 08:50:12;;;;;;;6.73;5.90;;;;;;;17.34;44.03;95502.75;5000085;28;20916;-85
2021/04/21 08:55:38;;;;;;;7.57;6.30;;;;;;;17.67;41.65;95504.16;5001039;28;20230;-85
2021/04/21 08:58:10;;;;;;;7.50;6.88;;;;;;;17.47;40.04;95501.81;5000260;28;20198;-85
2021/04/21 09:00:41;;;;;;;7.72;7.03;;;;;;;17.27;40.98;95496.84;5005599;28;20300;-86
2021/04/21 09:03:07;;;;;;;8.02;7.07;;;;;;;17.51;41.45;95498.50;5006554;28;20202;-86
2021/04/21 09:05:37;;;;;;;7.65;7.03;;;;;;;17.59;40.70;95492.22;5006519;28;20234;-84
2021/04/21 09:08:12;;;;;;;7.80;7.10;;;;;;;17.70;39.59;95496.72;5006830;28;20199;-85
2021/04/21 09:11:16;;;;;;;;;;;;;;;;;;;;;
2021/04/21 09:13:53;;;;;;;7.75;7.05;;;;;;;17.95;38.56;95496.50;5004646;28;20232;-86
2021/04/21 09:19:46;;;;;;;;;;;;;;;;;;;;;
2021/04/21 09:22:24;;;;;;;9.18;7.25;;;;;;;18.40;39.82;95495.97;4986312;28;20203;-86
2021/04/21 09:28:29;;;;;;;7.20;6.60;;;;;;;18.52;38.13;95492.34;5059898;23;20234;-86
2021/04/21 09:31:00;;;;;;;8.35;6.80;;;;;;;18.80;37.72;95480.44;5026790;28;20290;-83
2021/04/21 09:33:27;;;;;;;8.48;7.78;;;;;;;18.67;36.89;95493.72;5036011;28;20218;-82
2021/04/21 09:35:54;;;;;;;7.32;6.70;;;;;;;18.62;37.11;95491.81;5036023;28;20255;-81
2021/04/21 09:38:24;;;;;;;8.10;7.30;;;;;;;18.77;37.05;95491.31;5033441;28;20204;-82
2021/04/21 09:40:57;;;;;;;7.88;6.93;;;;;;;18.82;35.93;95481.81;5016999;28;20203;-82
2021/04/21 09:43:27;;;;;;;7.47;6.78;;;;;;;18.89;37.75;95485.06;5015615;28;20214;-83
2021/04/21 09:46:01;;;;;;;6.97;6.38;;;;;;;19.06;37.98;95481.72;5020978;28;20305;-84
2021/04/21 09:48:38;;;;;;;8.73;7.82;;;;;;;19.24;36.13;95489.41;5016203;28;20290;-81
2021/04/21 09:51:06;;;;;;;7.95;7.00;;;;;;;19.07;35.72;95472.88;5017377;28;20187;-82
2021/04/21 09:53:34;;;;;;;9.07;8.18;;;;;;;18.78;35.01;95482.47;5019389;28;20218;-82
2021/04/21 09:56:06;;;;;;;8.10;7.40;;;;;;;18.86;35.40;95479.50;5023362;28;20377;-83
2021/04/21 09:58:39;;;;;;;7.72;6.93;;;;;;;19.07;36.52;95488.53;5018690;28;20285;-85
2021/04/21 10:01:29;;;;;;;7.07;6.32;;;;;;;19.20;35.34;95481.25;5015357;28;20199;-83
2021/04/21 10:04:08;;;;;;;8.02;7.22;;;;;;;19.49;35.02;95482.00;5017431;28;20191;-83
2021/04/21 10:06:35;;;;;;;9.20;6.82;;;;;;;19.48;34.49;95479.63;4997508;28;20299;-84
2021/04/21 10:09:01;;;;;;;7.75;7.05;;;;;;;19.53;35.25;95472.72;5034156;28;20217;-82
2021/04/21 10:11:29;;;;;;;9.40;7.15;;;;;;;19.51;34.96;95469.53;5036256;28;20230;-83
2021/04/21 10:13:58;;;;;;;8.90;8.00;;;;;;;19.13;34.39;95474.56;5030434;28;20218;-82
2021/04/21 10:16:26;;;;;;;9.13;7.80;;;;;;;19.34;36.22;95479.13;5028917;28;20727;-83
2021/04/21 10:18:52;;;;;;;8.32;7.53;;;;;;;19.22;34.60;95475.78;5033657;28;20202;-82
2021/04/21 10:21:20;;;;;;;7.90;7.20;;;;;;;19.38;34.84;95469.81;5037619;28;20205;-81
2021/04/21 10:23:56;;;;;;;7.80;7.10;;;;;;;19.36;33.57;95468.47;5023902;28;20261;-84
2021/04/21 10:26:24;;;;;;;9.82;7.32;;;;;;;19.11;34.83;95466.97;5027848;28;20229;-83
2021/04/21 10:28:51;;;;;;;8.55;7.55;;;;;;;18.62;34.74;95481.38;5021361;28;20199;-83
2021/04/21 10:31:18;;;;;;;8.32;7.30;;;;;;;18.12;36.02;95478.41;5023037;28;20207;-83
2021/04/21 10:33:51;;;;;;;7.30;6.47;;;;;;;17.98;36.61;95470.00;5017191;28;20309;-83
2021/04/21 10:36:19;;;;;;;6.78;6.05;;;;;;;17.88;35.82;95469.78;5018564;28;20218;-84
2021/04/21 10:38:52;;;;;;;7.25;6.55;;;;;;;17.93;36.12;95464.69;5017286;28;20202;-81
2021/04/21 10:41:31;;;;;;;7.43;6.82;;;;;;;18.23;35.30;95465.38;5024347;28;20205;-81
2021/04/21 10:44:09;;;;;;;7.60;6.90;;;;;;;18.58;34.40;95465.38;5013669;28;20205;-82
2021/04/21 10:46:59;;;;;;;7.72;6.60;;;;;;;18.92;33.69;95461.13;5032118;28;20229;-81
2021/04/21 10:49:49;;;;;;;8.00;6.97;;;;;;;18.97;32.49;95456.00;5012660;28;20289;-80
2021/04/21 10:52:18;;;;;;;8.25;7.47;;;;;;;19.11;32.62;95450.50;5009619;28;20285;-84
2021/04/21 10:54:46;;;;;;;8.15;7.32;;;;;;;19.39;32.63;95442.69;5011871;28;20203;-83
2021/04/21 10:57:27;;;;;;;6.72;6.13;;;;;;;19.54;33.47;95450.00;5013808;28;20254;-82
2021/04/21 11:00:05;;;;;;;7.95;6.53;;;;;;;19.73;33.59;95443.53;5017033;28;20194;-83
2021/04/21 11:02:50;;;;;;;7.40;6.80;;;;;;;19.55;32.22;95436.72;5017043;28;20854;-82
2021/04/21 11:05:23;;;;;;;7.78;6.97;;;;;;;19.59;32.03;95435.22;5023331;28;20207;-84
2021/04/21 11:08:00;;;;;;;7.50;6.80;;;;;;;19.70;31.07;95441.41;5015006;28;20266;-81
2021/04/21 11:10:44;;;;;;;7.13;6.53;;;;;;;19.74;30.96;95441.72;5013965;28;20305;-83
2021/04/21 11:13:11;;;;;;;7.22;6.53;;;;;;;19.78;30.02;95433.16;5024639;28;20214;-82
2021/04/21 11:15:42;;;;;;;15.15;7.07;;;;;;;19.67;31.00;95434.03;5023710;28;20255;-84
2021/04/21 11:18:29;;;;;;;7.40;6.70;;;;;;;19.63;29.31;95427.69;5021698;28;20198;-81
2021/04/21 11:21:01;;;;;;;7.13;6.38;;;;;;;19.67;30.50;95426.97;5019117;28;20203;-83
2021/04/21 11:23:56;;;;;;;7.20;6.60;;;;;;;19.63;29.62;95423.25;5020989;28;20752;-82
2021/04/21 11:26:39;;;;;;;6.85;6.30;;;;;;;19.38;30.74;95419.41;5034788;28;20276;-83
2021/04/21 11:29:08;;;;;;;7.32;6.35;;;;;;;19.44;30.96;95413.22;5019863;28;20190;-83
2021/04/21 11:32:13;;;;;;;7.47;6.88;;;;;;;19.33;30.21;95410.47;5032447;28;20194;-82
2021/04/21 11:34:41;;;;;;;9.70;8.00;;;;;;;19.03;33.25;95409.13;5002009;28;20199;-82
2021/04/21 11:37:15;;;;;;;8.70;7.82;;;;;;;18.91;34.25;95409.16;5007763;28;20347;-82
2021/04/21 11:40:00;;;;;;;8.48;6.97;;;;;;;18.94;35.08;95413.91;5013945;28;20297;-82
2021/04/21 11:42:43;;;;;;;7.97;7.28;;;;;;;18.91;34.64;95415.19;5020887;28;20199;-81
2021/04/21 11:45:37;;;;;;;9.48;7.55;;;;;;;19.18;32.98;95412.03;4999344;28;20196;-82
2021/04/21 11:48:20;;;;;;;7.72;7.03;;;;;;;19.56;34.69;95404.34;5002052;28;20210;-82
2021/04/21 11:50:48;;;;;;;8.35;7.45;;;;;;;19.65;33.56;95402.91;5025568;28;20229;-82
2021/04/21 11:53:18;;;;;;;7.38;6.68;;;;;;;19.72;34.66;95402.75;5036226;28;20210;-83
2021/04/21 11:55:52;;;;;;;7.75;7.05;;;;;;;19.44;33.23;95393.13;5029103;28;20277;-82
2021/04/21 11:58:20;;;;;;;8.38;7.32;;;;;;;19.15;33.83;95402.84;5030512;28;20201;-82
2021/04/21 12:00:48;;;;;;;7.53;6.75;;;;;;;19.01;34.23;95401.53;5021744;28;20252;-83
2021/04/21 12:03:17;;;;;;;9.38;7.03;;;;;;;18.73;33.78;95396.28;5016468;28;20233;-82
2021/04/21 12:05:44;;;;;;;7.22;6.53;;;;;;;18.79;34.25;95396.16;5033488;28;20214;-81
2021/04/21 12:08:17;;;;;;;7.00;6.40;;;;;;;19.10;34.52;95397.50;5014318;28;20233;-81
2021/04/21 12:10:43;;;;;;;7.63;6.60;;;;;;;19.33;33.97;95394.00;5013777;28;20236;-83
2021/04/21 12:13:15;;;;;;;7.70;7.00;;;;;;;19.58;32.11;95386.63;5031177;28;20233;-83
2021/04/21 12:15:41;;;;;;;6.97;6.38;;;;;;;19.85;32.27;95388.56;5022680;28;20597;-82